createdAt,value
2017-02-09T00:00:18.474Z,926.19
2017-02-09T00:00:46.800Z,926.11
2017-02-09T00:01:15.080Z,926.14
2017-02-09T00:01:43.255Z,926.2
2017-02-09T00:02:54.393Z,926.16
2017-02-09T00:03:22.510Z,926.19
2017-02-09T00:03:50.671Z,926.17
2017-02-09T00:04:18.876Z,926.17
2017-02-09T00:04:47.192Z,926.21
2017-02-09T00:05:15.385Z,926.17
2017-02-09T00:05:43.706Z,926.25
2017-02-09T00:06:11.991Z,926.17
2017-02-09T00:06:40.219Z,926.19
2017-02-09T00:07:08.402Z,926.25
2017-02-09T00:07:36.480Z,926.28
2017-02-09T00:08:47.687Z,926.2
2017-02-09T00:09:15.757Z,926.17
2017-02-09T00:09:43.892Z,926.26
2017-02-09T00:10:12.151Z,926.26
2017-02-09T00:10:40.322Z,926.28
2017-02-09T00:11:08.571Z,926.25
2017-02-09T00:11:36.858Z,926.21
2017-02-09T00:12:05.005Z,926.16
2017-02-09T00:12:32.934Z,926.34
2017-02-09T00:13:01.211Z,926.25
2017-02-09T00:13:29.381Z,926.26
2017-02-09T00:14:40.519Z,926.27
2017-02-09T00:15:08.640Z,926.29
2017-02-09T00:15:36.612Z,926.34
2017-02-09T00:16:04.818Z,926.42
2017-02-09T00:16:32.946Z,926.39
2017-02-09T00:17:01.047Z,926.37
2017-02-09T00:17:29.162Z,926.38
2017-02-09T00:17:57.210Z,926.38
2017-02-09T00:18:25.394Z,926.37
2017-02-09T00:18:53.556Z,926.44
2017-02-09T00:19:21.782Z,926.49
2017-02-09T00:20:32.872Z,926.43
2017-02-09T00:21:00.847Z,926.45
2017-02-09T00:21:28.890Z,926.48
2017-02-09T00:21:57.092Z,926.52
2017-02-09T00:22:25.309Z,926.47
2017-02-09T00:22:53.406Z,926.49
2017-02-09T00:23:21.728Z,926.5
2017-02-09T00:23:49.912Z,926.51
2017-02-09T00:24:18.026Z,926.52
2017-02-09T00:24:46.244Z,926.49
2017-02-09T00:25:14.092Z,926.55
2017-02-09T00:26:25.269Z,926.49
2017-02-09T00:26:53.429Z,926.56
2017-02-09T00:27:21.645Z,926.59
2017-02-09T00:27:49.799Z,926.57
2017-02-09T00:28:18.070Z,926.53
2017-02-09T00:28:46.214Z,926.58
2017-02-09T00:29:14.403Z,926.57
2017-02-09T00:29:42.557Z,926.57
2017-02-09T00:30:10.833Z,926.56
2017-02-09T00:30:38.975Z,926.53
2017-02-09T00:31:07.149Z,926.55
2017-02-09T00:32:18.273Z,926.55
2017-02-09T00:32:46.432Z,926.56
2017-02-09T00:33:14.549Z,926.63
2017-02-09T00:33:42.810Z,926.64
2017-02-09T00:34:10.988Z,926.68
2017-02-09T00:34:39.138Z,926.58
2017-02-09T00:35:07.334Z,926.67
2017-02-09T00:35:35.582Z,926.68
2017-02-09T00:36:03.767Z,926.62
2017-02-09T00:36:32.007Z,926.62
2017-02-09T00:37:00.044Z,926.62
2017-02-09T00:38:11.349Z,926.51
2017-02-09T00:38:39.651Z,926.65
2017-02-09T00:39:07.808Z,926.61
2017-02-09T00:39:35.865Z,926.67
2017-02-09T00:40:04.145Z,926.64
2017-02-09T00:40:32.382Z,926.66
2017-02-09T00:41:00.666Z,926.63
2017-02-09T00:41:28.852Z,926.7
2017-02-09T00:41:57.124Z,926.68
2017-02-09T00:42:25.260Z,926.64
2017-02-09T00:42:53.495Z,926.66
2017-02-09T00:44:04.672Z,926.63
2017-02-09T00:44:32.649Z,926.7
2017-02-09T00:45:00.786Z,926.7
2017-02-09T00:45:28.989Z,926.62
2017-02-09T00:45:57.121Z,926.73
2017-02-09T00:46:25.408Z,926.69
2017-02-09T00:46:53.642Z,926.67
2017-02-09T00:47:21.831Z,926.69
2017-02-09T00:47:50.151Z,926.7
2017-02-09T00:48:18.433Z,926.68
2017-02-09T00:48:46.691Z,926.69
2017-02-09T00:49:58.018Z,926.74
2017-02-09T00:50:26.322Z,926.79
2017-02-09T00:50:54.573Z,926.68
2017-02-09T00:51:22.781Z,926.73
2017-02-09T00:51:50.996Z,926.71
2017-02-09T00:52:19.188Z,926.69
2017-02-09T00:52:47.421Z,926.69
2017-02-09T00:53:15.705Z,926.8
2017-02-09T00:53:44.033Z,926.68
2017-02-09T00:54:12.305Z,926.68
2017-02-09T00:54:40.566Z,926.73
2017-02-09T00:55:51.888Z,926.74
2017-02-09T00:56:20.190Z,926.67
2017-02-09T00:56:48.445Z,926.7
2017-02-09T00:57:16.652Z,926.69
2017-02-09T00:57:44.970Z,926.7
2017-02-09T00:58:13.069Z,926.74
2017-02-09T00:58:41.401Z,926.73
2017-02-09T00:59:09.682Z,926.73
2017-02-09T00:59:38.008Z,926.78
2017-02-09T01:00:06.381Z,926.71
2017-02-09T01:00:34.553Z,926.78
2017-02-09T01:01:45.789Z,926.7
2017-02-09T01:02:14.093Z,926.75
2017-02-09T01:02:42.346Z,926.8
2017-02-09T01:03:10.555Z,926.81
2017-02-09T01:03:38.869Z,926.74
2017-02-09T01:04:07.060Z,926.8
2017-02-09T01:04:35.388Z,926.87
2017-02-09T01:05:03.670Z,926.77
2017-02-09T01:05:31.902Z,926.8
2017-02-09T01:06:00.180Z,926.84
2017-02-09T01:06:28.354Z,926.8
2017-02-09T01:07:39.584Z,926.8
2017-02-09T01:08:07.886Z,926.82
2017-02-09T01:08:36.142Z,926.85
2017-02-09T01:09:04.251Z,926.85
2017-02-09T01:09:32.563Z,926.82
2017-02-09T01:10:00.854Z,926.92
2017-02-09T01:10:29.183Z,926.85
2017-02-09T01:10:57.468Z,926.93
2017-02-09T01:11:25.792Z,926.87
2017-02-09T01:11:54.158Z,926.86
2017-02-09T01:12:22.427Z,926.88
2017-02-09T01:13:33.568Z,926.86
2017-02-09T01:14:01.869Z,926.88
2017-02-09T01:14:30.125Z,926.87
2017-02-09T01:14:58.234Z,926.89
2017-02-09T01:15:26.546Z,926.86
2017-02-09T01:15:54.741Z,926.83
2017-02-09T01:16:23.068Z,926.94
2017-02-09T01:16:51.348Z,926.89
2017-02-09T01:17:19.676Z,926.89
2017-02-09T01:17:48.044Z,926.88
2017-02-09T01:18:16.299Z,926.94
2017-02-09T01:19:27.435Z,926.88
2017-02-09T01:19:55.555Z,926.9
2017-02-09T01:20:23.813Z,926.99
2017-02-09T01:20:51.922Z,926.91
2017-02-09T01:21:20.242Z,926.86
2017-02-09T01:21:48.437Z,926.91
2017-02-09T01:22:16.762Z,926.99
2017-02-09T01:22:45.047Z,926.93
2017-02-09T01:23:13.275Z,927.01
2017-02-09T01:23:41.547Z,927.08
2017-02-09T01:24:09.743Z,927.02
2017-02-09T01:25:20.883Z,927.02
2017-02-09T01:25:49.186Z,927.04
2017-02-09T01:26:17.438Z,927.02
2017-02-09T01:26:45.644Z,926.97
2017-02-09T01:27:13.950Z,926.99
2017-02-09T01:27:42.239Z,927.02
2017-02-09T01:28:10.565Z,926.96
2017-02-09T01:28:38.842Z,927
2017-02-09T01:29:07.073Z,927.01
2017-02-09T01:29:35.340Z,927
2017-02-09T01:30:03.515Z,926.98
2017-02-09T01:31:15.290Z,926.93
2017-02-09T01:31:43.592Z,926.98
2017-02-09T01:32:11.842Z,927.04
2017-02-09T01:32:40.135Z,926.95
2017-02-09T01:33:08.451Z,926.95
2017-02-09T01:33:36.737Z,926.94
2017-02-09T01:34:04.972Z,926.98
2017-02-09T01:34:33.076Z,926.99
2017-02-09T01:35:01.391Z,926.98
2017-02-09T01:35:29.761Z,927.04
2017-02-09T01:35:58.028Z,927
2017-02-09T01:37:09.171Z,926.94
2017-02-09T01:37:37.377Z,927.01
2017-02-09T01:38:05.631Z,926.97
2017-02-09T01:38:33.832Z,926.95
2017-02-09T01:39:02.055Z,926.94
2017-02-09T01:39:30.251Z,926.97
2017-02-09T01:39:58.575Z,926.91
2017-02-09T01:40:26.856Z,926.93
2017-02-09T01:40:55.181Z,926.92
2017-02-09T01:41:23.563Z,926.92
2017-02-09T01:41:51.821Z,926.93
2017-02-09T01:43:03.057Z,926.89
2017-02-09T01:43:31.360Z,926.89
2017-02-09T01:43:59.524Z,926.93
2017-02-09T01:44:27.726Z,926.94
2017-02-09T01:44:56.039Z,926.86
2017-02-09T01:45:24.230Z,926.89
2017-02-09T01:45:52.560Z,927.06
2017-02-09T01:46:20.843Z,926.92
2017-02-09T01:46:49.170Z,926.88
2017-02-09T01:47:17.532Z,926.92
2017-02-09T01:47:45.795Z,926.98
2017-02-09T01:48:57.025Z,926.94
2017-02-09T01:49:25.328Z,926.88
2017-02-09T01:49:53.582Z,926.97
2017-02-09T01:50:21.783Z,926.93
2017-02-09T01:50:50.008Z,926.94
2017-02-09T01:51:18.295Z,926.93
2017-02-09T01:51:46.621Z,926.86
2017-02-09T01:52:14.901Z,926.93
2017-02-09T01:52:43.228Z,926.94
2017-02-09T01:53:11.502Z,926.94
2017-02-09T01:53:39.674Z,926.9
2017-02-09T01:54:50.913Z,926.89
2017-02-09T01:55:19.031Z,926.84
2017-02-09T01:55:47.292Z,926.86
2017-02-09T01:56:15.583Z,926.91
2017-02-09T01:56:43.895Z,926.9
2017-02-09T01:57:12.091Z,926.91
2017-02-09T01:57:40.329Z,926.88
2017-02-09T01:58:08.613Z,926.9
2017-02-09T01:58:36.845Z,926.88
2017-02-09T01:59:05.114Z,926.87
2017-02-09T01:59:33.290Z,926.89
2017-02-09T02:00:44.525Z,926.87
2017-02-09T02:01:12.641Z,926.91
2017-02-09T02:01:40.906Z,926.99
2017-02-09T02:02:09.013Z,926.87
2017-02-09T02:02:37.232Z,926.92
2017-02-09T02:03:05.419Z,926.93
2017-02-09T02:03:33.648Z,926.93
2017-02-09T02:04:01.931Z,926.88
2017-02-09T02:04:30.248Z,926.88
2017-02-09T02:04:58.611Z,926.89
2017-02-09T02:05:26.875Z,926.91
2017-02-09T02:06:38.103Z,926.95
2017-02-09T02:07:06.218Z,926.91
2017-02-09T02:07:34.475Z,926.89
2017-02-09T02:08:02.768Z,926.95
2017-02-09T02:08:30.897Z,926.98
2017-02-09T02:08:58.901Z,926.97
2017-02-09T02:09:27.228Z,927.04
2017-02-09T02:09:55.512Z,926.95
2017-02-09T02:10:23.739Z,927.04
2017-02-09T02:10:52.100Z,927
2017-02-09T02:11:20.372Z,927.01
2017-02-09T02:12:31.600Z,926.94
2017-02-09T02:12:59.902Z,927.02
2017-02-09T02:13:28.156Z,926.94
2017-02-09T02:13:56.453Z,926.99
2017-02-09T02:14:24.675Z,927.04
2017-02-09T02:14:52.874Z,926.97
2017-02-09T02:15:21.198Z,927
2017-02-09T02:15:49.482Z,927.02
2017-02-09T02:16:17.804Z,927.03
2017-02-09T02:16:46.171Z,927.01
2017-02-09T02:17:14.164Z,927.03
2017-02-09T02:18:25.393Z,926.99
2017-02-09T02:18:53.696Z,926.99
2017-02-09T02:19:21.951Z,927
2017-02-09T02:19:50.251Z,927
2017-02-09T02:20:18.568Z,926.97
2017-02-09T02:20:46.854Z,926.99
2017-02-09T02:21:15.180Z,927.03
2017-02-09T02:21:43.463Z,927.02
2017-02-09T02:22:11.789Z,926.99
2017-02-09T02:22:40.055Z,926.94
2017-02-09T02:23:08.322Z,926.98
2017-02-09T02:24:19.463Z,927
2017-02-09T02:24:47.765Z,926.92
2017-02-09T02:25:16.019Z,926.98
2017-02-09T02:25:44.234Z,926.91
2017-02-09T02:26:12.447Z,926.85
2017-02-09T02:26:40.732Z,926.89
2017-02-09T02:27:09.059Z,926.91
2017-02-09T02:27:37.337Z,926.95
2017-02-09T02:28:05.660Z,926.89
2017-02-09T02:28:33.937Z,926.85
2017-02-09T02:29:02.106Z,926.84
2017-02-09T02:30:13.332Z,926.87
2017-02-09T02:30:41.355Z,926.89
2017-02-09T02:31:09.606Z,926.94
2017-02-09T02:31:37.901Z,926.87
2017-02-09T02:32:06.214Z,926.86
2017-02-09T02:32:34.316Z,926.9
2017-02-09T02:33:02.545Z,926.85
2017-02-09T02:33:30.828Z,926.83
2017-02-09T02:33:59.149Z,926.85
2017-02-09T02:34:27.519Z,926.84
2017-02-09T02:34:55.688Z,926.87
2017-02-09T02:36:06.923Z,926.86
2017-02-09T02:36:35.225Z,926.88
2017-02-09T02:37:03.477Z,926.87
2017-02-09T02:37:31.682Z,926.85
2017-02-09T02:37:59.899Z,926.83
2017-02-09T02:38:28.090Z,926.83
2017-02-09T02:38:56.415Z,926.86
2017-02-09T02:39:24.700Z,926.85
2017-02-09T02:39:53.019Z,926.84
2017-02-09T02:40:21.295Z,926.8
2017-02-09T02:40:49.280Z,926.87
2017-02-09T02:42:00.423Z,926.81
2017-02-09T02:42:28.542Z,926.74
2017-02-09T02:42:56.797Z,926.68
2017-02-09T02:43:24.999Z,926.7
2017-02-09T02:43:53.312Z,926.7
2017-02-09T02:44:21.598Z,926.66
2017-02-09T02:44:49.926Z,926.67
2017-02-09T02:45:18.213Z,926.55
2017-02-09T02:45:46.537Z,926.64
2017-02-09T02:46:14.907Z,926.57
2017-02-09T02:46:43.169Z,926.55
2017-02-09T02:47:54.405Z,926.52
2017-02-09T02:48:22.519Z,926.54
2017-02-09T02:48:50.680Z,926.53
2017-02-09T02:49:18.819Z,926.51
2017-02-09T02:49:47.038Z,926.53
2017-02-09T02:50:15.043Z,926.52
2017-02-09T02:50:43.188Z,926.54
2017-02-09T02:51:11.376Z,926.5
2017-02-09T02:51:39.418Z,926.56
2017-02-09T02:52:07.593Z,926.57
2017-02-09T02:52:35.764Z,926.49
2017-02-09T02:53:46.989Z,926.53
2017-02-09T02:54:15.107Z,926.5
2017-02-09T02:54:43.265Z,926.51
2017-02-09T02:55:11.383Z,926.49
2017-02-09T02:55:39.694Z,926.5
2017-02-09T02:56:07.890Z,926.46
2017-02-09T02:56:36.122Z,926.46
2017-02-09T02:57:04.307Z,926.49
2017-02-09T02:57:32.535Z,926.46
2017-02-09T02:58:00.716Z,926.43
2017-02-09T02:58:28.886Z,926.45
2017-02-09T02:59:40.032Z,926.48
2017-02-09T03:00:08.146Z,926.42
2017-02-09T03:00:36.397Z,926.44
2017-02-09T03:01:04.690Z,926.45
2017-02-09T03:01:32.819Z,926.48
2017-02-09T03:02:00.734Z,926.4
2017-02-09T03:02:29.061Z,926.44
2017-02-09T03:02:57.251Z,926.41
2017-02-09T03:03:25.483Z,926.4
2017-02-09T03:03:53.844Z,926.4
2017-02-09T03:04:22.109Z,926.44
2017-02-09T03:05:33.335Z,926.42
2017-02-09T03:06:01.543Z,926.4
2017-02-09T03:06:29.705Z,926.4
2017-02-09T03:06:57.996Z,926.41
2017-02-09T03:07:26.124Z,926.39
2017-02-09T03:07:54.319Z,926.42
2017-02-09T03:08:22.640Z,926.43
2017-02-09T03:08:50.831Z,926.4
2017-02-09T03:09:19.060Z,926.41
2017-02-09T03:09:47.235Z,926.42
2017-02-09T03:10:15.404Z,926.41
2017-02-09T03:11:26.545Z,926.45
2017-02-09T03:11:54.662Z,926.44
2017-02-09T03:12:22.917Z,926.45
2017-02-09T03:12:51.115Z,926.47
2017-02-09T03:13:19.436Z,926.4
2017-02-09T03:13:47.628Z,926.4
2017-02-09T03:14:15.853Z,926.4
2017-02-09T03:14:44.042Z,926.45
2017-02-09T03:15:12.365Z,926.47
2017-02-09T03:15:40.543Z,926.47
2017-02-09T03:16:08.806Z,926.42
2017-02-09T03:17:20.040Z,926.4
2017-02-09T03:17:48.249Z,926.32
2017-02-09T03:18:16.499Z,926.32
2017-02-09T03:18:44.606Z,926.28
2017-02-09T03:19:12.830Z,926.27
2017-02-09T03:19:40.932Z,926.24
2017-02-09T03:20:09.155Z,926.19
2017-02-09T03:20:37.347Z,926.23
2017-02-09T03:21:05.672Z,926.18
2017-02-09T03:21:34.038Z,926.17
2017-02-09T03:22:02.209Z,926.19
2017-02-09T03:23:13.255Z,926.16
2017-02-09T03:23:41.555Z,926.25
2017-02-09T03:24:09.719Z,926.2
2017-02-09T03:24:38.015Z,926.18
2017-02-09T03:25:06.323Z,926.18
2017-02-09T03:25:34.422Z,926.18
2017-02-09T03:26:02.562Z,926.18
2017-02-09T03:26:30.757Z,926.17
2017-02-09T03:26:59.079Z,926.14
2017-02-09T03:27:27.349Z,926.13
2017-02-09T03:27:55.534Z,926.09
2017-02-09T03:29:06.607Z,926.15
2017-02-09T03:29:34.906Z,926.11
2017-02-09T03:30:03.068Z,926.11
2017-02-09T03:30:31.176Z,926.12
2017-02-09T03:30:59.311Z,926.09
2017-02-09T03:31:27.586Z,926.12
2017-02-09T03:31:55.723Z,926.08
2017-02-09T03:32:24.009Z,926.15
2017-02-09T03:32:52.052Z,926.11
2017-02-09T03:33:20.239Z,926.05
2017-02-09T03:33:48.314Z,926.13
2017-02-09T03:34:59.638Z,926.1
2017-02-09T03:35:27.846Z,926.09
2017-02-09T03:35:56.104Z,926.02
2017-02-09T03:36:24.399Z,926.06
2017-02-09T03:36:52.525Z,926.08
2017-02-09T03:37:20.631Z,926.02
2017-02-09T03:37:48.768Z,926.01
2017-02-09T03:38:17.053Z,926
2017-02-09T03:38:45.281Z,925.97
2017-02-09T03:39:13.544Z,925.97
2017-02-09T03:39:41.807Z,926.01
2017-02-09T03:40:53.035Z,925.98
2017-02-09T03:41:21.242Z,925.97
2017-02-09T03:41:49.504Z,925.95
2017-02-09T03:42:17.624Z,925.97
2017-02-09T03:42:45.838Z,925.89
2017-02-09T03:43:14.035Z,925.95
2017-02-09T03:43:42.351Z,925.96
2017-02-09T03:44:10.634Z,925.98
2017-02-09T03:44:38.952Z,925.95
2017-02-09T03:45:07.318Z,926.01
2017-02-09T03:45:35.503Z,925.97
2017-02-09T03:46:46.637Z,925.97
2017-02-09T03:47:14.759Z,925.95
2017-02-09T03:47:43.010Z,925.97
2017-02-09T03:48:11.301Z,925.94
2017-02-09T03:48:39.520Z,925.93
2017-02-09T03:49:07.803Z,925.91
2017-02-09T03:49:35.947Z,925.93
2017-02-09T03:50:04.217Z,925.89
2017-02-09T03:50:32.540Z,925.93
2017-02-09T03:51:00.908Z,925.88
2017-02-09T03:51:29.076Z,925.94
2017-02-09T03:52:40.219Z,925.92
2017-02-09T03:53:08.338Z,925.96
2017-02-09T03:53:36.602Z,925.91
2017-02-09T03:54:04.814Z,925.87
2017-02-09T03:54:33.017Z,925.88
2017-02-09T03:55:01.194Z,925.87
2017-02-09T03:55:29.524Z,925.86
2017-02-09T03:55:57.792Z,925.84
2017-02-09T03:56:26.009Z,925.9
2017-02-09T03:56:54.255Z,925.79
2017-02-09T03:57:22.576Z,925.83
2017-02-09T03:58:33.741Z,925.86
2017-02-09T03:59:01.963Z,925.79
2017-02-09T03:59:30.220Z,925.79
2017-02-09T03:59:58.524Z,925.79
2017-02-09T04:00:26.636Z,925.76
2017-02-09T04:00:54.916Z,925.78
2017-02-09T04:01:23.057Z,925.76
2017-02-09T04:01:51.230Z,925.8
2017-02-09T04:02:19.549Z,925.77
2017-02-09T04:02:47.919Z,925.78
2017-02-09T04:03:16.099Z,925.74
2017-02-09T04:04:27.418Z,925.79
2017-02-09T04:04:55.712Z,925.79
2017-02-09T04:05:23.962Z,925.77
2017-02-09T04:05:52.164Z,925.81
2017-02-09T04:06:20.371Z,925.79
2017-02-09T04:06:48.463Z,925.83
2017-02-09T04:07:16.606Z,925.78
2017-02-09T04:07:44.885Z,925.76
2017-02-09T04:08:13.198Z,925.74
2017-02-09T04:08:41.572Z,925.86
2017-02-09T04:09:09.750Z,925.74
2017-02-09T04:10:20.979Z,925.73
2017-02-09T04:10:49.089Z,925.81
2017-02-09T04:11:17.336Z,925.76
2017-02-09T04:11:45.442Z,925.77
2017-02-09T04:12:13.743Z,925.78
2017-02-09T04:12:41.924Z,925.8
2017-02-09T04:13:10.162Z,925.81
2017-02-09T04:13:38.441Z,925.8
2017-02-09T04:14:06.755Z,925.75
2017-02-09T04:14:35.131Z,925.74
2017-02-09T04:15:03.401Z,925.69
2017-02-09T04:16:14.353Z,925.68
2017-02-09T04:16:42.650Z,925.69
2017-02-09T04:17:10.714Z,925.7
2017-02-09T04:17:39.008Z,925.71
2017-02-09T04:18:07.216Z,925.72
2017-02-09T04:18:35.305Z,925.72
2017-02-09T04:19:03.544Z,925.66
2017-02-09T04:19:31.728Z,925.77
2017-02-09T04:20:00.044Z,925.62
2017-02-09T04:20:28.416Z,925.67
2017-02-09T04:20:56.681Z,925.64
2017-02-09T04:22:07.823Z,925.71
2017-02-09T04:22:36.022Z,925.69
2017-02-09T04:23:04.178Z,925.66
2017-02-09T04:23:32.194Z,925.71
2017-02-09T04:24:00.227Z,925.72
2017-02-09T04:24:28.317Z,925.73
2017-02-09T04:24:56.462Z,925.72
2017-02-09T04:25:24.546Z,925.7
2017-02-09T04:25:52.767Z,925.64
2017-02-09T04:26:20.969Z,925.7
2017-02-09T04:26:49.218Z,925.64
2017-02-09T04:28:00.540Z,925.62
2017-02-09T04:28:28.743Z,925.61
2017-02-09T04:28:56.995Z,925.62
2017-02-09T04:29:25.199Z,925.62
2017-02-09T04:29:53.503Z,925.63
2017-02-09T04:30:21.772Z,925.6
2017-02-09T04:30:50.010Z,925.61
2017-02-09T04:31:18.285Z,925.64
2017-02-09T04:31:46.600Z,925.59
2017-02-09T04:32:14.876Z,925.53
2017-02-09T04:32:43.045Z,925.58
2017-02-09T04:33:54.185Z,925.59
2017-02-09T04:34:22.388Z,925.63
2017-02-09T04:34:50.545Z,925.67
2017-02-09T04:35:18.837Z,925.6
2017-02-09T04:35:47.043Z,925.58
2017-02-09T04:36:15.223Z,925.59
2017-02-09T04:36:43.552Z,925.63
2017-02-09T04:37:11.829Z,925.66
2017-02-09T04:37:40.051Z,925.59
2017-02-09T04:38:08.424Z,925.57
2017-02-09T04:38:36.597Z,925.58
2017-02-09T04:39:47.736Z,925.61
2017-02-09T04:40:16.033Z,925.63
2017-02-09T04:40:44.271Z,925.59
2017-02-09T04:41:12.564Z,925.58
2017-02-09T04:41:40.770Z,925.6
2017-02-09T04:42:09.047Z,925.57
2017-02-09T04:42:37.289Z,925.59
2017-02-09T04:43:05.564Z,925.54
2017-02-09T04:43:33.876Z,925.57
2017-02-09T04:44:02.241Z,925.54
2017-02-09T04:44:30.323Z,925.49
2017-02-09T04:45:41.461Z,925.5
2017-02-09T04:46:09.664Z,925.49
2017-02-09T04:46:37.820Z,925.48
2017-02-09T04:47:06.021Z,925.43
2017-02-09T04:47:34.234Z,925.43
2017-02-09T04:48:02.502Z,925.47
2017-02-09T04:48:30.830Z,925.49
2017-02-09T04:48:59.018Z,925.41
2017-02-09T04:49:27.246Z,925.42
2017-02-09T04:49:55.529Z,925.45
2017-02-09T04:50:23.704Z,925.42
2017-02-09T04:51:35.029Z,925.41
2017-02-09T04:52:03.232Z,925.37
2017-02-09T04:52:31.477Z,925.43
2017-02-09T04:52:59.679Z,925.42
2017-02-09T04:53:27.978Z,925.43
2017-02-09T04:53:56.062Z,925.42
2017-02-09T04:54:24.394Z,925.55
2017-02-09T04:54:52.673Z,925.41
2017-02-09T04:55:20.989Z,925.44
2017-02-09T04:55:49.355Z,925.46
2017-02-09T04:56:17.436Z,925.52
2017-02-09T04:57:28.760Z,925.53
2017-02-09T04:57:56.964Z,925.45
2017-02-09T04:58:25.026Z,925.54
2017-02-09T04:58:53.228Z,925.43
2017-02-09T04:59:21.343Z,925.44
2017-02-09T04:59:49.423Z,925.44
2017-02-09T05:00:17.751Z,925.46
2017-02-09T05:00:46.026Z,925.42
2017-02-09T05:01:14.345Z,925.42
2017-02-09T05:01:42.708Z,925.41
2017-02-09T05:02:10.974Z,925.37
2017-02-09T05:03:22.054Z,925.37
2017-02-09T05:03:50.262Z,925.34
2017-02-09T05:04:18.517Z,925.33
2017-02-09T05:04:46.666Z,925.35
2017-02-09T05:05:14.962Z,925.34
2017-02-09T05:05:43.148Z,925.34
2017-02-09T05:06:11.401Z,925.35
2017-02-09T05:06:39.703Z,925.3
2017-02-09T05:07:08.003Z,925.3
2017-02-09T05:07:36.284Z,925.34
2017-02-09T05:08:04.617Z,925.29
2017-02-09T05:09:15.929Z,925.29
2017-02-09T05:09:44.134Z,925.29
2017-02-09T05:10:12.387Z,925.29
2017-02-09T05:10:40.617Z,925.27
2017-02-09T05:11:08.822Z,925.26
2017-02-09T05:11:37.007Z,925.27
2017-02-09T05:12:05.353Z,925.27
2017-02-09T05:12:33.560Z,925.27
2017-02-09T05:13:01.866Z,925.32
2017-02-09T05:13:30.059Z,925.3
2017-02-09T05:13:58.297Z,925.28
2017-02-09T05:15:09.706Z,925.3
2017-02-09T05:15:37.917Z,925.24
2017-02-09T05:16:06.170Z,925.27
2017-02-09T05:16:34.499Z,925.26
2017-02-09T05:17:02.698Z,925.26
2017-02-09T05:17:30.974Z,925.26
2017-02-09T05:17:59.228Z,925.26
2017-02-09T05:18:27.530Z,925.28
2017-02-09T05:18:55.830Z,925.28
2017-02-09T05:19:24.024Z,925.27
2017-02-09T05:19:52.172Z,925.28
2017-02-09T05:21:03.490Z,925.23
2017-02-09T05:21:31.786Z,925.22
2017-02-09T05:21:59.948Z,925.25
2017-02-09T05:22:28.269Z,925.25
2017-02-09T05:22:56.469Z,925.16
2017-02-09T05:23:24.745Z,925.18
2017-02-09T05:23:53.000Z,925.2
2017-02-09T05:24:21.305Z,925.19
2017-02-09T05:24:49.606Z,925.18
2017-02-09T05:25:17.987Z,925.13
2017-02-09T05:25:46.137Z,925.1
2017-02-09T05:26:57.543Z,925.07
2017-02-09T05:27:25.840Z,925.07
2017-02-09T05:27:54.101Z,925.06
2017-02-09T05:28:22.242Z,925.04
2017-02-09T05:28:50.537Z,925.05
2017-02-09T05:29:18.723Z,925.04
2017-02-09T05:29:46.979Z,925.03
2017-02-09T05:30:15.191Z,925.01
2017-02-09T05:30:43.489Z,925.01
2017-02-09T05:31:11.874Z,925.01
2017-02-09T05:31:39.926Z,924.95
2017-02-09T05:32:51.335Z,924.91
2017-02-09T05:33:19.548Z,924.98
2017-02-09T05:33:47.806Z,924.95
2017-02-09T05:34:15.950Z,924.93
2017-02-09T05:34:44.248Z,924.95
2017-02-09T05:35:12.433Z,924.97
2017-02-09T05:35:40.498Z,924.94
2017-02-09T05:36:08.709Z,924.97
2017-02-09T05:36:37.011Z,924.92
2017-02-09T05:37:05.292Z,924.91
2017-02-09T05:37:33.624Z,924.95
2017-02-09T05:38:44.943Z,924.94
2017-02-09T05:39:13.146Z,924.93
2017-02-09T05:39:41.303Z,924.95
2017-02-09T05:40:09.534Z,924.92
2017-02-09T05:40:37.830Z,924.97
2017-02-09T05:41:06.112Z,924.96
2017-02-09T05:41:34.461Z,924.92
2017-02-09T05:42:02.670Z,924.92
2017-02-09T05:42:30.973Z,924.95
2017-02-09T05:42:59.352Z,924.94
2017-02-09T05:43:27.592Z,924.93
2017-02-09T05:44:38.818Z,924.89
2017-02-09T05:45:07.026Z,924.92
2017-02-09T05:45:35.282Z,924.99
2017-02-09T05:46:03.513Z,924.94
2017-02-09T05:46:31.812Z,924.96
2017-02-09T05:47:00.084Z,924.94
2017-02-09T05:47:28.430Z,924.99
2017-02-09T05:47:56.640Z,925.01
2017-02-09T05:48:24.945Z,924.95
2017-02-09T05:48:53.328Z,925.01
2017-02-09T05:49:21.665Z,925.02
2017-02-09T05:50:32.885Z,924.99
2017-02-09T05:51:01.184Z,925.08
2017-02-09T05:51:29.439Z,925.03
2017-02-09T05:51:57.482Z,925.05
2017-02-09T05:52:25.774Z,924.99
2017-02-09T05:52:53.965Z,925.03
2017-02-09T05:53:22.312Z,925.02
2017-02-09T05:53:50.430Z,925.01
2017-02-09T05:54:18.732Z,924.94
2017-02-09T05:54:47.013Z,924.98
2017-02-09T05:55:15.254Z,924.97
2017-02-09T05:56:26.661Z,924.99
2017-02-09T05:56:54.957Z,925.01
2017-02-09T05:57:23.214Z,924.97
2017-02-09T05:57:51.449Z,925.02
2017-02-09T05:58:19.749Z,925
2017-02-09T05:58:47.842Z,925.04
2017-02-09T05:59:16.096Z,925.03
2017-02-09T05:59:44.401Z,925.01
2017-02-09T06:00:12.709Z,925.01
2017-02-09T06:00:41.085Z,925.02
2017-02-09T06:01:09.417Z,925.07
2017-02-09T06:02:20.830Z,924.97
2017-02-09T06:02:49.043Z,925.03
2017-02-09T06:03:17.208Z,925.07
2017-02-09T06:03:46.146Z,925
2017-02-09T06:04:14.444Z,925
2017-02-09T06:04:42.539Z,924.98
2017-02-09T06:05:10.792Z,924.98
2017-02-09T06:05:39.094Z,924.95
2017-02-09T06:06:07.396Z,925.01
2017-02-09T06:06:35.770Z,924.97
2017-02-09T06:07:04.006Z,924.96
2017-02-09T06:08:15.107Z,924.96
2017-02-09T06:08:43.399Z,924.95
2017-02-09T06:09:11.638Z,924.93
2017-02-09T06:09:39.843Z,924.93
2017-02-09T06:10:08.056Z,924.91
2017-02-09T06:10:36.329Z,924.95
2017-02-09T06:11:04.655Z,924.92
2017-02-09T06:11:32.937Z,924.93
2017-02-09T06:12:01.158Z,924.89
2017-02-09T06:12:29.431Z,924.91
2017-02-09T06:12:57.415Z,924.93
2017-02-09T06:14:08.744Z,924.81
2017-02-09T06:14:37.037Z,924.82
2017-02-09T06:15:05.287Z,924.85
2017-02-09T06:15:33.491Z,924.89
2017-02-09T06:16:01.705Z,924.87
2017-02-09T06:16:29.986Z,924.87
2017-02-09T06:16:58.130Z,924.87
2017-02-09T06:17:26.321Z,924.86
2017-02-09T06:17:54.544Z,924.8
2017-02-09T06:18:22.900Z,924.8
2017-02-09T06:18:51.162Z,924.84
2017-02-09T06:20:02.390Z,924.8
2017-02-09T06:20:30.405Z,924.82
2017-02-09T06:20:58.652Z,924.8
2017-02-09T06:21:26.768Z,924.8
2017-02-09T06:21:55.077Z,924.78
2017-02-09T06:22:23.350Z,924.8
2017-02-09T06:22:51.684Z,924.83
2017-02-09T06:23:19.972Z,924.83
2017-02-09T06:23:48.284Z,924.78
2017-02-09T06:24:16.649Z,924.81
2017-02-09T06:24:44.909Z,924.8
2017-02-09T06:25:56.236Z,924.75
2017-02-09T06:26:24.529Z,924.79
2017-02-09T06:26:52.683Z,924.82
2017-02-09T06:27:20.888Z,924.83
2017-02-09T06:27:49.107Z,924.78
2017-02-09T06:28:17.283Z,924.78
2017-02-09T06:28:45.613Z,924.78
2017-02-09T06:29:13.897Z,924.79
2017-02-09T06:29:42.210Z,924.8
2017-02-09T06:30:10.479Z,924.85
2017-02-09T06:30:38.649Z,924.92
2017-02-09T06:31:49.792Z,924.89
2017-02-09T06:32:18.083Z,924.85
2017-02-09T06:32:46.236Z,924.92
2017-02-09T06:33:14.440Z,924.91
2017-02-09T06:33:42.655Z,924.92
2017-02-09T06:34:10.842Z,924.92
2017-02-09T06:34:39.171Z,924.87
2017-02-09T06:35:07.461Z,924.9
2017-02-09T06:35:35.685Z,924.9
2017-02-09T06:36:04.048Z,924.88
2017-02-09T06:36:32.307Z,924.9
2017-02-09T06:37:43.536Z,924.9
2017-02-09T06:38:11.650Z,924.92
2017-02-09T06:38:39.921Z,924.98
2017-02-09T06:39:08.220Z,924.95
2017-02-09T06:39:36.535Z,924.94
2017-02-09T06:40:04.697Z,924.99
2017-02-09T06:40:32.914Z,924.98
2017-02-09T06:41:01.108Z,925.02
2017-02-09T06:41:29.413Z,924.99
2017-02-09T06:41:57.774Z,925.04
2017-02-09T06:42:25.951Z,925